Time;durP1;ratioP1;P1;durP2;ratioP2;P2;SDS_P1;SDS_P2;PMS_P1;PMS_P2;Temp;Humidity;BMP_temperature;BMP_pressure;BME280_temperature;BME280_humidity;BME280_pressure;Samples;Min_cycle;Max_cycle;Signal;HPM_P1;HPM_P2
2023/05/04 00:01:25;;;;;;;7.10;1.50;;;;;;;11.43;100.00;100260.33;103789;1272;61189;-49
2023/05/04 00:03:53;;;;;;;5.10;0.80;;;;;;;11.35;100.00;100260.66;103861;1263;59236;-51
2023/05/04 00:06:20;;;;;;;5.20;1.00;;;;;;;11.29;100.00;100260.57;103896;1269;74587;-50
2023/05/04 00:08:47;;;;;;;2.00;0.70;;;;;;;11.24;100.00;100256.65;104076;1269;68452;-48
2023/05/04 00:11:14;;;;;;;4.10;0.90;;;;;;;11.19;100.00;100259.04;104440;1265;72230;-49
2023/05/04 00:13:40;;;;;;;2.70;0.90;;;;;;;11.13;100.00;100262.36;104445;1270;171903;-48
2023/05/04 00:16:07;;;;;;;1.80;0.60;;;;;;;11.08;100.00;100258.80;104664;1262;59320;-49
2023/05/04 00:18:37;;;;;;;5.60;0.90;;;;;;;11.03;100.00;100260.10;104600;1264;73023;-49
2023/05/04 00:21:05;;;;;;;1.60;0.50;;;;;;;11.00;100.00;100262.69;107442;1267;67606;-49
2023/05/04 00:23:32;;;;;;;8.70;0.90;;;;;;;11.01;100.00;100266.08;104001;1266;71105;-49
2023/05/04 00:25:59;;;;;;;3.80;0.70;;;;;;;11.04;100.00;100265.25;107846;1262;62143;-49
2023/05/04 00:28:26;;;;;;;1.70;0.40;;;;;;;11.04;100.00;100263.63;104160;1262;61417;-48
2023/05/04 00:30:53;;;;;;;4.40;1.20;;;;;;;11.02;100.00;100264.41;104523;1268;73291;-50
2023/05/04 00:33:20;;;;;;;9.50;1.00;;;;;;;11.01;100.00;100263.04;104874;1262;69490;-49
2023/05/04 00:35:47;;;;;;;0.80;0.60;;;;;;;11.00;100.00;100262.89;104217;1265;73495;-49
2023/05/04 00:38:15;;;;;;;4.00;0.70;;;;;;;10.97;100.00;100264.45;104052;1262;61550;-49
2023/05/04 00:40:42;;;;;;;1.10;0.60;;;;;;;10.94;100.00;100265.83;107574;1262;60302;-50
2023/05/04 00:43:10;;;;;;;1.70;0.80;;;;;;;10.90;100.00;100262.77;104001;1263;75109;-50
2023/05/04 00:45:37;;;;;;;1.30;0.70;;;;;;;10.84;100.00;100259.80;103809;1262;67716;-49
2023/05/04 00:48:05;;;;;;;1.50;0.70;;;;;;;10.77;100.00;100251.66;103870;1268;73440;-49
2023/05/04 00:50:31;;;;;;;1.50;0.60;;;;;;;10.73;100.00;100250.91;104738;1262;62900;-50
2023/05/04 00:52:59;;;;;;;8.20;1.20;;;;;;;10.70;100.00;100252.29;103856;1263;60941;-49
2023/05/04 00:55:26;;;;;;;3.20;0.70;;;;;;;10.71;100.00;100253.52;104097;1262;73694;-49
2023/05/04 00:57:54;;;;;;;1.70;0.80;;;;;;;10.74;100.00;100256.23;104001;1263;68548;-51
2023/05/04 01:00:21;;;;;;;1.90;0.60;;;;;;;10.81;100.00;100257.41;103849;1262;73173;-49
2023/05/04 01:02:48;;;;;;;1.20;0.70;;;;;;;10.88;100.00;100258.37;103975;1267;61889;-49
2023/05/04 01:05:15;;;;;;;2.40;0.70;;;;;;;10.94;100.00;100255.79;103794;1263;59633;-51
2023/05/04 01:08:03;;;;;;;1.20;0.70;;;;;;;10.98;100.00;100257.40;103939;1264;72024;-48
2023/05/04 01:10:42;;;;;;;1.20;0.80;;;;;;;11.01;100.00;100260.50;104615;1265;69312;-47
2023/05/04 01:13:15;;;;;;;1.40;1.00;;;;;;;11.05;100.00;100262.16;104608;1268;73306;-51
2023/05/04 01:15:42;;;;;;;2.80;0.80;;;;;;;11.09;100.00;100254.41;104532;1265;60766;-48
2023/05/04 01:18:09;;;;;;;2.20;0.70;;;;;;;11.13;100.00;100248.52;104550;1268;61042;-50
2023/05/04 01:20:36;;;;;;;1.20;0.60;;;;;;;11.14;100.00;100247.02;108198;1265;73595;-51
2023/05/04 01:23:03;;;;;;;1.10;0.70;;;;;;;11.17;100.00;100245.29;104931;1262;68023;-48
2023/05/04 01:25:34;;;;;;;1.00;0.70;;;;;;;11.20;100.00;100244.27;104497;1268;71383;-51
2023/05/04 01:28:11;;;;;;;1.00;0.60;;;;;;;11.23;100.00;100244.27;104779;1270;64655;-50
2023/05/04 01:30:39;;;;;;;2.30;0.70;;;;;;;11.26;100.00;100237.52;104637;1263;59619;-48
2023/05/04 01:33:06;;;;;;;0.60;0.60;;;;;;;11.29;100.00;100236.49;106933;1265;73521;-47
2023/05/04 01:35:35;;;;;;;1.00;0.70;;;;;;;11.30;100.00;100231.44;106041;1267;72217;-49
2023/05/04 01:38:02;;;;;;;1.60;0.70;;;;;;;11.30;100.00;100233.05;104312;1266;73129;-48
2023/05/04 01:40:28;;;;;;;0.70;0.60;;;;;;;11.28;100.00;100229.70;104442;1266;61525;-48
2023/05/04 01:42:55;;;;;;;0.80;0.70;;;;;;;11.29;100.00;100228.25;104391;1268;59741;-50
2023/05/04 01:45:22;;;;;;;2.10;0.60;;;;;;;11.27;100.00;100228.30;104535;1262;73980;-49
2023/05/04 01:47:48;;;;;;;0.50;0.50;;;;;;;11.25;100.00;100230.36;104696;1267;68868;-49
2023/05/04 01:50:15;;;;;;;0.50;0.50;;;;;;;11.24;100.00;100228.09;105109;1262;72805;-50
2023/05/04 01:52:42;;;;;;;0.90;0.60;;;;;;;11.23;100.00;100232.61;104718;1263;61857;-51
2023/05/04 01:55:09;;;;;;;1.10;0.60;;;;;;;11.22;100.00;100235.52;104632;1263;61846;-49
2023/05/04 01:57:36;;;;;;;3.30;0.70;;;;;;;11.20;100.00;100230.77;104578;1263;72915;-50
2023/05/04 02:00:04;;;;;;;4.10;0.60;;;;;;;11.15;100.00;100224.52;104476;1268;69220;-47
2023/05/04 02:02:41;;;;;;;0.80;0.60;;;;;;;11.11;100.00;100225.25;107026;1266;73251;-49
2023/05/04 02:05:08;;;;;;;0.70;0.50;;;;;;;11.07;100.00;100226.13;107110;1263;61987;-48
2023/05/04 02:07:35;;;;;;;0.70;0.50;;;;;;;11.05;100.00;100227.33;104568;1264;60696;-47
2023/05/04 02:10:02;;;;;;;1.40;0.50;;;;;;;11.04;100.00;100227.34;104595;1264;71979;-48
2023/05/04 02:12:29;;;;;;;4.10;0.60;;;;;;;11.05;100.00;100223.73;108259;1262;69280;-52
2023/05/04 02:14:57;;;;;;;1.40;0.70;;;;;;;11.06;100.00;100218.28;104772;1265;72091;-47
2023/05/04 02:17:24;;;;;;;1.80;0.60;;;;;;;11.01;100.00;100210.77;104661;1263;61316;-47
2023/05/04 02:19:50;;;;;;;0.90;0.70;;;;;;;10.91;100.00;100213.51;104679;1265;60912;-48
2023/05/04 02:22:17;;;;;;;1.00;0.70;;;;;;;10.82;100.00;100213.36;104424;1265;74250;-50
2023/05/04 02:24:44;;;;;;;1.30;0.70;;;;;;;10.75;100.00;100213.31;104595;1267;67773;-50
2023/05/04 02:27:11;;;;;;;1.90;0.80;;;;;;;10.72;100.00;100224.05;104709;1267;73819;-49
2023/05/04 02:29:38;;;;;;;2.00;0.70;;;;;;;10.71;100.00;100235.05;104636;1265;62430;-47
2023/05/04 02:32:06;;;;;;;0.90;0.80;;;;;;;10.71;100.00;100237.56;104451;1264;61057;-50
2023/05/04 02:34:34;;;;;;;0.90;0.80;;;;;;;10.70;100.00;100238.65;108729;1255;74891;-48
2023/05/04 02:37:00;;;;;;;0.80;0.70;;;;;;;10.71;100.00;100236.28;108784;1255;68882;-49
2023/05/04 02:39:27;;;;;;;1.10;0.70;;;;;;;10.71;100.00;100230.54;108727;1255;74431;-48
2023/05/04 02:41:54;;;;;;;5.90;0.70;;;;;;;10.67;100.00;100224.27;108650;1256;62665;-48
2023/05/04 02:44:21;;;;;;;2.10;0.70;;;;;;;10.58;100.00;100228.71;108692;1254;61624;-47
2023/05/04 02:46:47;;;;;;;1.10;0.70;;;;;;;10.51;100.00;100226.33;108741;1255;72093;-47
2023/05/04 02:49:14;;;;;;;1.80;0.60;;;;;;;10.48;100.00;100222.13;108725;1256;68359;-48
2023/05/04 02:51:41;;;;;;;1.50;0.60;;;;;;;10.48;100.00;100218.02;108750;1256;75203;-48
2023/05/04 02:54:07;;;;;;;0.60;0.60;;;;;;;10.47;100.00;100224.66;108769;1255;60456;-49
2023/05/04 02:56:34;;;;;;;1.10;0.70;;;;;;;10.49;100.00;100222.98;108843;1255;62671;-48
2023/05/04 02:59:01;;;;;;;0.80;0.70;;;;;;;10.52;100.00;100216.59;108786;1255;73132;-48
2023/05/04 03:01:28;;;;;;;1.00;0.60;;;;;;;10.54;100.00;100212.57;108732;1254;68480;-47
2023/05/04 03:03:54;;;;;;;1.40;0.70;;;;;;;10.53;100.00;100208.84;108668;1254;73545;-47
2023/05/04 03:06:21;;;;;;;0.80;0.60;;;;;;;10.51;100.00;100207.14;108722;1256;61682;-49
2023/05/04 03:08:48;;;;;;;1.80;0.60;;;;;;;10.46;100.00;100206.42;107924;1260;62177;-52
2023/05/04 03:11:15;;;;;;;1.00;0.80;;;;;;;10.45;100.00;100206.30;105141;1254;76600;-48
2023/05/04 03:13:42;;;;;;;2.10;0.70;;;;;;;10.47;100.00;100204.76;107685;1256;69192;-45
2023/05/04 03:16:11;;;;;;;0.90;0.70;;;;;;;10.50;100.00;100198.37;105751;1257;73853;-45
2023/05/04 03:18:37;;;;;;;0.90;0.70;;;;;;;10.54;100.00;100194.63;105139;1256;64081;-46
2023/05/04 03:21:05;;;;;;;1.40;0.70;;;;;;;10.60;100.00;100197.05;105185;1258;61613;-50
2023/05/04 03:23:32;;;;;;;0.60;0.60;;;;;;;10.67;100.00;100193.38;105166;1255;73621;-46
2023/05/04 03:25:58;;;;;;;1.00;0.60;;;;;;;10.70;100.00;100184.98;105072;1256;68020;-50
2023/05/04 03:28:25;;;;;;;2.00;0.70;;;;;;;10.76;100.00;100176.66;105092;1256;73312;-48
2023/05/04 03:30:52;;;;;;;0.70;0.70;;;;;;;10.84;100.00;100178.28;105088;1261;60464;-48
2023/05/04 03:33:19;;;;;;;3.50;0.70;;;;;;;10.91;100.00;100178.31;105316;1255;61048;-50
2023/05/04 03:35:46;;;;;;;0.90;0.80;;;;;;;10.99;100.00;100180.48;105251;1258;74811;-51
2023/05/04 03:38:13;;;;;;;3.20;0.70;;;;;;;11.07;100.00;100179.08;105140;1259;68135;-46
2023/05/04 03:40:42;;;;;;;0.70;0.70;;;;;;;11.14;100.00;100183.42;105376;1256;72972;-47
2023/05/04 03:43:10;;;;;;;0.80;0.70;;;;;;;11.20;100.00;100186.25;105179;1256;63792;-50
2023/05/04 03:45:36;;;;;;;1.80;0.60;;;;;;;11.22;100.00;100193.14;105043;1259;59582;-49
2023/05/04 03:48:04;;;;;;;0.70;0.60;;;;;;;11.25;100.00;100197.14;105108;1260;74147;-51
2023/05/04 03:50:31;;;;;;;1.50;0.90;;;;;;;11.28;100.00;100197.89;105234;1255;68308;-47
2023/05/04 03:52:57;;;;;;;1.40;0.80;;;;;;;11.32;100.00;100194.85;105239;1256;72568;-51
2023/05/04 03:55:25;;;;;;;0.90;0.70;;;;;;;11.37;100.00;100195.54;105251;1256;62304;-48
2023/05/04 03:57:52;;;;;;;0.80;0.70;;;;;;;11.41;100.00;100195.36;105132;1255;60595;-51
2023/05/04 04:00:19;;;;;;;2.90;0.70;;;;;;;11.46;100.00;100198.02;105184;1261;75595;-48
2023/05/04 04:02:51;;;;;;;1.20;0.70;;;;;;;11.52;100.00;100197.55;105367;1261;67965;-48
2023/05/04 04:05:18;;;;;;;0.70;0.70;;;;;;;11.61;100.00;100199.31;105118;1258;74380;-49
2023/05/04 04:07:45;;;;;;;0.80;0.70;;;;;;;11.68;100.00;100193.41;105321;1260;62276;-49
2023/05/04 04:10:12;;;;;;;1.60;0.80;;;;;;;11.77;100.00;100185.27;105199;1255;62323;-49
2023/05/04 04:12:39;;;;;;;2.80;0.80;;;;;;;11.90;100.00;100188.80;105151;1256;75920;-49
2023/05/04 04:15:06;;;;;;;1.40;1.00;;;;;;;12.01;100.00;100197.11;105111;1256;67909;-48
2023/05/04 04:17:33;;;;;;;1.90;0.80;;;;;;;12.14;100.00;100195.59;104934;1259;74686;-51
2023/05/04 04:20:00;;;;;;;1.60;1.00;;;;;;;12.26;100.00;100199.52;104423;1259;62510;-44
2023/05/04 04:22:26;;;;;;;1.90;0.90;;;;;;;12.41;100.00;100201.13;104365;1256;61426;-49
2023/05/04 04:24:53;;;;;;;1.90;1.40;;;;;;;12.57;100.00;100197.63;104300;1259;73721;-48
2023/05/04 04:27:20;;;;;;;1.50;1.10;;;;;;;12.69;100.00;100195.06;104689;1256;68190;-50
2023/05/04 04:29:46;;;;;;;2.90;1.20;;;;;;;12.76;100.00;100193.61;104715;1256;73614;-47
2023/05/04 04:32:14;;;;;;;1.50;1.40;;;;;;;12.83;100.00;100191.46;105136;1258;63672;-49
2023/05/04 04:34:41;;;;;;;3.60;1.20;;;;;;;12.86;100.00;100186.96;105433;1260;60487;-50
2023/05/04 04:37:07;;;;;;;1.50;1.20;;;;;;;12.84;100.00;100187.25;104950;1256;74595;-50
2023/05/04 04:39:34;;;;;;;3.50;1.10;;;;;;;12.79;100.00;100182.64;104841;1256;69336;-47
2023/05/04 04:42:01;;;;;;;1.30;1.00;;;;;;;12.79;100.00;100190.05;104964;1260;75044;-46
2023/05/04 04:44:28;;;;;;;1.10;1.00;;;;;;;12.82;100.00;100194.77;105250;1257;60448;-51
2023/05/04 04:46:55;;;;;;;5.00;1.20;;;;;;;12.85;100.00;100192.80;105140;1256;62428;-50
2023/05/04 04:49:22;;;;;;;1.40;1.20;;;;;;;12.90;100.00;100190.36;105004;1256;73464;-51
2023/05/04 04:51:49;;;;;;;2.40;1.30;;;;;;;12.95;100.00;100186.87;104739;1258;70570;-48
2023/05/04 04:54:16;;;;;;;1.40;1.20;;;;;;;12.98;100.00;100189.08;104845;1256;73260;-49
2023/05/04 04:56:43;;;;;;;2.70;1.30;;;;;;;13.04;100.00;100190.91;104737;1258;64230;-50
2023/05/04 04:59:11;;;;;;;4.70;1.40;;;;;;;13.12;100.00;100196.09;105161;1255;61050;-51
2023/05/04 05:01:38;;;;;;;3.90;1.70;;;;;;;13.13;100.00;100192.09;105240;1256;75626;-49
2023/05/04 05:04:05;;;;;;;1.40;1.20;;;;;;;13.15;100.00;100189.65;105248;1257;69097;-51
2023/05/04 05:06:32;;;;;;;3.10;1.80;;;;;;;13.18;100.00;100185.16;105193;1254;74780;-51
2023/05/04 05:08:59;;;;;;;2.30;1.60;;;;;;;13.24;100.00;100185.05;105345;1256;61678;-50
2023/05/04 05:11:25;;;;;;;2.50;1.40;;;;;;;13.29;100.00;100188.41;105332;1255;60417;-50
2023/05/04 05:13:52;;;;;;;3.10;1.40;;;;;;;13.31;100.00;100187.23;105308;1258;74123;-51
2023/05/04 05:16:19;;;;;;;2.10;1.80;;;;;;;13.33;100.00;100181.16;105287;1260;70380;-52
2023/05/04 05:18:46;;;;;;;5.00;1.70;;;;;;;13.37;100.00;100182.89;105210;1258;73162;-51
2023/05/04 05:21:13;;;;;;;3.80;1.60;;;;;;;13.39;100.00;100186.40;105283;1255;60538;-51
2023/05/04 05:23:40;;;;;;;1.90;1.70;;;;;;;13.42;100.00;100187.89;105253;1255;60754;-49
2023/05/04 05:26:06;;;;;;;4.30;1.80;;;;;;;13.45;100.00;100187.70;105164;1256;73252;-49
2023/05/04 05:28:33;;;;;;;6.00;2.00;;;;;;;13.51;100.00;100183.81;105061;1259;68186;-50
2023/05/04 05:31:00;;;;;;;2.30;1.80;;;;;;;13.54;100.00;100182.36;104907;1256;74376;-48
2023/05/04 05:33:27;;;;;;;2.60;2.30;;;;;;;13.56;100.00;100182.61;104826;1256;61110;-51
2023/05/04 05:35:53;;;;;;;5.70;2.50;;;;;;;13.58;100.00;100180.67;104813;1259;60296;-49
2023/05/04 05:38:20;;;;;;;2.90;1.80;;;;;;;13.60;100.00;100177.33;105003;1260;74894;-49
2023/05/04 05:40:48;;;;;;;4.50;1.90;;;;;;;13.63;100.00;100184.40;105097;1255;69005;-48
2023/05/04 05:43:15;;;;;;;2.60;2.30;;;;;;;13.63;100.00;100185.09;108717;1254;72164;-50
2023/05/04 05:45:42;;;;;;;2.10;2.00;;;;;;;13.63;100.00;100183.68;108717;1256;62085;-51
2023/05/04 05:48:09;;;;;;;2.20;2.00;;;;;;;13.57;100.00;100176.03;108659;1256;60701;-50
2023/05/04 05:50:36;;;;;;;4.60;2.20;;;;;;;13.50;100.00;100172.64;108598;1254;73381;-51
2023/05/04 05:53:02;;;;;;;2.40;1.40;;;;;;;13.41;100.00;100166.82;108851;1256;69877;-51
2023/05/04 05:55:29;;;;;;;4.60;2.80;;;;;;;13.37;100.00;100163.09;108875;1255;73517;-50
2023/05/04 05:57:56;;;;;;;3.50;2.10;;;;;;;13.38;100.00;100159.95;108920;1255;63895;-51
2023/05/04 06:00:23;;;;;;;4.60;2.00;;;;;;;13.44;100.00;100163.76;108951;1254;61383;-51
2023/05/04 06:02:50;;;;;;;5.60;2.20;;;;;;;13.53;100.00;100162.58;108884;1254;75345;-50
2023/05/04 06:05:17;;;;;;;3.90;2.80;;;;;;;13.63;100.00;100155.01;108828;1254;67062;-51
2023/05/04 06:07:44;;;;;;;3.40;2.80;;;;;;;13.75;100.00;100156.71;108382;1255;75172;-51
2023/05/04 06:10:11;;;;;;;2.90;2.50;;;;;;;13.83;100.00;100156.27;105186;1261;60551;-51
2023/05/04 06:12:37;;;;;;;3.60;3.40;;;;;;;13.90;100.00;100156.39;105204;1259;60701;-51
2023/05/04 06:15:05;;;;;;;2.80;2.30;;;;;;;13.97;100.00;100154.91;105263;1256;75013;-50
2023/05/04 06:17:32;;;;;;;3.10;2.50;;;;;;;14.06;100.00;100152.79;108614;1254;67372;-51
2023/05/04 06:19:59;;;;;;;2.60;2.30;;;;;;;14.08;100.00;100150.48;108504;1256;72127;-51
2023/05/04 06:22:26;;;;;;;3.30;2.20;;;;;;;14.13;100.00;100142.46;104283;1259;62984;-52
2023/05/04 06:24:53;;;;;;;3.70;2.10;;;;;;;14.23;100.00;100135.38;104429;1261;62407;-51
2023/05/04 06:27:30;;;;;;;;;;;;;;;14.37;100.00;100132.04;104404;1260;74687;-50
2023/05/04 06:29:57;;;;;;;3.50;2.40;;;;;;;14.50;100.00;100127.89;107885;1260;69850;-50
2023/05/04 06:32:23;;;;;;;2.60;2.30;;;;;;;14.62;100.00;100120.88;104913;1259;71885;-50
2023/05/04 06:34:54;;;;;;;3.40;2.80;;;;;;;14.73;100.00;100126.55;104936;1260;62662;-49
2023/05/04 06:37:21;;;;;;;4.10;3.20;;;;;;;14.82;100.00;100129.25;104654;1256;62247;-50
2023/05/04 06:39:48;;;;;;;6.70;3.40;;;;;;;14.89;100.00;100126.48;105278;1261;73717;-50
2023/05/04 06:42:15;;;;;;;3.20;2.90;;;;;;;14.94;100.00;100119.13;105166;1260;68941;-51
2023/05/04 06:44:41;;;;;;;4.10;3.30;;;;;;;14.94;100.00;100118.40;104958;1261;74648;-49
2023/05/04 06:47:08;;;;;;;4.10;2.30;;;;;;;14.90;100.00;100121.85;105212;1257;60689;-49
2023/05/04 06:49:35;;;;;;;9.10;3.70;;;;;;;14.93;100.00;100113.77;105295;1259;60514;-49
2023/05/04 06:52:02;;;;;;;4.00;3.30;;;;;;;14.98;100.00;100117.80;105361;1260;74752;-50
2023/05/04 06:54:28;;;;;;;5.50;2.70;;;;;;;14.97;100.00;100115.34;105310;1260;69170;-50
2023/05/04 06:56:55;;;;;;;4.00;2.40;;;;;;;14.99;100.00;100118.29;105217;1261;74813;-51
2023/05/04 06:59:22;;;;;;;4.40;3.20;;;;;;;15.08;100.00;100115.73;105291;1259;64617;-50
2023/05/04 07:01:49;;;;;;;3.70;3.40;;;;;;;15.18;100.00;100117.14;105360;1261;62859;-50
2023/05/04 07:04:15;;;;;;;3.90;2.90;;;;;;;15.26;100.00;100113.15;105378;1254;75954;-50
2023/05/04 07:06:42;;;;;;;3.40;2.70;;;;;;;15.34;100.00;100114.30;105280;1259;66920;-50
2023/05/04 07:09:09;;;;;;;4.20;2.20;;;;;;;15.44;100.00;100113.70;105349;1256;71569;-49
2023/05/04 07:11:36;;;;;;;3.40;3.00;;;;;;;15.52;100.00;100115.70;105997;1260;60375;-50
2023/05/04 07:14:03;;;;;;;3.30;2.40;;;;;;;15.53;100.00;100115.10;105549;1259;61157;-50
2023/05/04 07:16:31;;;;;;;3.50;3.30;;;;;;;15.51;100.00;100118.12;105276;1262;72113;-51
2023/05/04 07:18:58;;;;;;;5.30;3.50;;;;;;;15.49;100.00;100121.11;108773;1256;69503;-51
2023/05/04 07:21:25;;;;;;;6.70;3.60;;;;;;;15.54;100.00;100119.06;108482;1260;74990;-51
2023/05/04 07:23:55;;;;;;;4.70;3.10;;;;;;;15.60;100.00;100112.89;108797;1255;59971;-51
2023/05/04 07:26:22;;;;;;;4.00;3.10;;;;;;;15.64;100.00;100113.38;107982;1260;63760;-50
2023/05/04 07:28:48;;;;;;;22.70;3.90;;;;;;;15.71;100.00;100111.27;105181;1254;74320;-51
2023/05/04 07:31:15;;;;;;;4.50;3.00;;;;;;;15.82;100.00;100114.73;105155;1260;66958;-51
2023/05/04 07:33:42;;;;;;;6.70;3.00;;;;;;;15.90;100.00;100116.58;105190;1262;74912;-51
2023/05/04 07:36:09;;;;;;;5.50;3.20;;;;;;;15.93;100.00;100117.84;105164;1258;61725;-50
2023/05/04 07:38:35;;;;;;;4.60;3.30;;;;;;;16.01;100.00;100119.48;105248;1261;61380;-50
2023/05/04 07:41:02;;;;;;;4.00;3.30;;;;;;;16.13;100.00;100118.48;105245;1259;76313;-51
2023/05/04 07:43:29;;;;;;;3.20;3.00;;;;;;;16.25;100.00;100117.72;105172;1259;70969;-51
2023/05/04 07:45:56;;;;;;;4.00;2.50;;;;;;;16.36;100.00;100120.98;104242;1256;74945;-50
2023/05/04 07:48:23;;;;;;;4.30;2.70;;;;;;;16.47;100.00;100113.90;105752;1259;63466;-51
2023/05/04 07:50:52;;;;;;;3.10;2.20;;;;;;;16.56;100.00;100111.24;108073;1254;63037;-51
2023/05/04 07:53:19;;;;;;;4.70;3.00;;;;;;;16.66;100.00;100104.84;106340;1259;75879;-52
2023/05/04 07:55:46;;;;;;;4.10;2.80;;;;;;;16.72;100.00;100103.58;105208;1255;68252;-49
2023/05/04 07:58:15;;;;;;;4.70;2.40;;;;;;;16.78;100.00;100097.67;107659;1259;75033;-52
2023/05/04 08:00:42;;;;;;;3.30;2.60;;;;;;;16.86;100.00;100091.33;107366;1259;60606;-51
2023/05/04 08:03:09;;;;;;;2.20;2.00;;;;;;;16.93;100.00;100093.36;105012;1261;60549;-50
2023/05/04 08:05:36;;;;;;;3.10;1.80;;;;;;;16.98;100.00;100085.92;105097;1259;74406;-52
2023/05/04 08:08:02;;;;;;;3.30;2.00;;;;;;;17.07;100.00;100083.73;105018;1255;70018;-51
2023/05/04 08:10:29;;;;;;;2.10;1.70;;;;;;;17.18;100.00;100084.36;104671;1259;72343;-50
2023/05/04 08:12:56;;;;;;;5.80;1.20;;;;;;;17.27;100.00;100076.80;104781;1261;60448;-51
2023/05/04 08:15:23;;;;;;;4.20;2.20;;;;;;;17.40;100.00;100075.52;108776;1254;64453;-52
2023/05/04 08:17:50;;;;;;;3.80;1.30;;;;;;;17.56;100.00;100071.52;104583;1256;76072;-51
2023/05/04 08:20:17;;;;;;;4.00;1.70;;;;;;;17.71;100.00;100073.66;104839;1259;68368;-51
2023/05/04 08:22:44;;;;;;;2.60;2.10;;;;;;;17.85;100.00;100067.98;105317;1269;72880;-51
2023/05/04 08:25:11;;;;;;;3.30;1.70;;;;;;;17.92;100.00;100061.23;108777;1254;59939;-52
2023/05/04 08:27:38;;;;;;;5.70;1.70;;;;;;;17.90;100.00;100061.39;105878;1254;60384;-51
2023/05/04 08:30:06;;;;;;;3.10;1.90;;;;;;;17.84;100.00;100059.84;104890;1254;74790;-51
2023/05/04 08:32:32;;;;;;;2.70;1.60;;;;;;;17.83;100.00;100061.59;104880;1265;68954;-51
2023/05/04 08:34:59;;;;;;;2.00;1.60;;;;;;;17.89;100.00;100060.05;105274;1260;74966;-51
2023/05/04 08:37:26;;;;;;;1.80;1.50;;;;;;;17.92;100.00;100058.70;105258;1261;61174;-50
2023/05/04 08:39:53;;;;;;;1.90;1.60;;;;;;;17.90;100.00;100056.48;105148;1259;62232;-50
2023/05/04 08:42:30;;;;;;;3.00;2.00;;;;;;;17.92;100.00;100055.25;105285;1261;76173;-52
2023/05/04 08:44:57;;;;;;;1.70;1.30;;;;;;;17.88;100.00;100052.44;108846;1256;70019;-52
2023/05/04 08:47:24;;;;;;;5.20;1.90;;;;;;;17.80;100.00;100050.72;108945;1254;73706;-51
2023/05/04 08:49:52;;;;;;;5.40;1.30;;;;;;;17.77;100.00;100054.39;105819;1254;62706;-50
2023/05/04 08:52:23;;;;;;;7.10;1.80;;;;;;;17.85;100.00;100049.64;108932;1259;61498;-51
2023/05/04 08:54:54;;;;;;;2.20;1.20;;;;;;;17.96;100.00;100052.20;108818;1260;74007;-52
2023/05/04 08:57:24;;;;;;;6.00;2.00;;;;;;;18.12;100.00;100050.84;106802;1254;66607;-50
2023/05/04 08:59:53;;;;;;;4.70;2.10;;;;;;;18.21;100.00;100047.08;108965;1254;72260;-52
2023/05/04 09:02:23;;;;;;;1.50;1.20;;;;;;;18.23;100.00;100045.35;106172;1259;60482;-51
2023/05/04 09:04:51;;;;;;;4.80;1.50;;;;;;;18.27;100.00;100051.55;105159;1260;60454;-50
2023/05/04 09:07:19;;;;;;;3.60;1.20;;;;;;;18.37;100.00;100053.31;105450;1260;74419;-50
2023/05/04 09:09:47;;;;;;;2.80;0.90;;;;;;;18.50;100.00;100046.86;105384;1260;69080;-52
2023/05/04 09:12:14;;;;;;;9.40;1.20;;;;;;;18.63;100.00;100043.01;105349;1263;73404;-51
2023/05/04 09:14:40;;;;;;;1.40;0.90;;;;;;;18.75;100.00;100034.05;105043;1260;62556;-51
2023/05/04 09:17:24;;;;;;;2.10;0.90;;;;;;;18.88;100.00;100034.89;104978;1257;60774;-52
2023/05/04 09:19:58;;;;;;;1.40;1.00;;;;;;;19.03;100.00;100031.11;105736;1257;74881;-51
2023/05/04 09:22:26;;;;;;;3.30;1.00;;;;;;;19.18;100.00;100026.13;106698;1260;70192;-50
2023/05/04 09:25:11;;;;;;;3.50;1.10;;;;;;;19.33;100.00;100020.71;104312;1257;73113;-51
2023/05/04 09:27:40;;;;;;;2.30;1.10;;;;;;;19.48;100.00;100020.44;105470;1259;62604;-52
2023/05/04 09:30:07;;;;;;;3.40;1.20;;;;;;;19.60;100.00;100018.20;106414;1258;60653;-51
2023/05/04 09:32:45;;;;;;;2.40;1.10;;;;;;;19.70;100.00;100012.85;106434;1254;75103;-51
2023/05/04 09:35:12;;;;;;;1.50;1.00;;;;;;;19.78;100.00;100011.28;105628;1259;67600;-51
2023/05/04 09:37:57;;;;;;;1.80;1.00;;;;;;;19.84;100.00;100015.49;105228;1260;74032;-51
2023/05/04 09:40:35;;;;;;;4.60;1.30;;;;;;;19.86;100.00;100012.59;105247;1258;60787;-52
2023/05/04 09:43:02;;;;;;;1.50;0.80;;;;;;;19.88;100.00;100008.77;105321;1257;61578;-51
2023/05/04 09:45:39;;;;;;;1.30;0.90;;;;;;;19.91;100.00;100006.14;105091;1254;74579;-53
2023/05/04 09:48:19;;;;;;;2.00;1.10;;;;;;;19.93;100.00;100004.02;104782;1256;65982;-50
2023/05/04 09:50:48;;;;;;;3.00;1.00;;;;;;;19.90;100.00;99997.71;105499;1261;74938;-51
2023/05/04 09:53:15;;;;;;;2.50;1.00;;;;;;;19.86;100.00;99999.84;104859;1260;60747;-54
2023/05/04 09:55:42;;;;;;;1.50;1.00;;;;;;;19.83;100.00;100000.83;104983;1259;60589;-52
2023/05/04 09:58:08;;;;;;;1.50;0.90;;;;;;;19.78;100.00;99996.31;105076;1254;75923;-52
2023/05/04 10:00:35;;;;;;;5.20;1.00;;;;;;;19.78;100.00;99995.09;104879;1271;66479;-53
2023/05/04 10:03:02;;;;;;;1.80;0.80;;;;;;;19.81;100.00;99991.05;105153;1261;73710;-52
2023/05/04 10:05:29;;;;;;;2.80;0.90;;;;;;;19.84;100.00;99989.41;105556;1255;61955;-51
2023/05/04 10:07:58;;;;;;;1.10;0.70;;;;;;;19.86;100.00;99989.48;105242;1258;60382;-51
2023/05/04 10:10:25;;;;;;;0.90;0.50;;;;;;;19.90;100.00;99983.13;105225;1259;72747;-51
2023/05/04 10:12:52;;;;;;;4.80;0.90;;;;;;;19.97;100.00;99984.00;105134;1260;69568;-51
2023/05/04 10:15:19;;;;;;;0.90;0.60;;;;;;;20.03;100.00;99980.91;105084;1261;74823;-52
2023/05/04 10:18:21;;;;;;;1.40;0.50;;;;;;;20.07;100.00;99976.43;104706;1260;61158;-52
2023/05/04 10:21:00;;;;;;;1.50;0.60;;;;;;;20.11;100.00;99976.95;104521;1261;60711;-50
2023/05/04 10:23:52;;;;;;;2.10;0.60;;;;;;;20.18;100.00;99981.86;105107;1260;73780;-52
2023/05/04 10:26:22;;;;;;;0.60;0.50;;;;;;;20.28;100.00;99977.35;105053;1259;70264;-50
2023/05/04 10:28:49;;;;;;;3.00;0.50;;;;;;;20.32;100.00;99969.36;105222;1255;74938;-50
2023/05/04 10:31:17;;;;;;;2.00;0.40;;;;;;;20.35;100.00;99971.10;104677;1254;62055;-51
2023/05/04 10:33:43;;;;;;;1.30;0.30;;;;;;;20.40;100.00;99974.15;104365;1257;62151;-50
2023/05/04 10:36:10;;;;;;;0.90;0.40;;;;;;;20.48;100.00;99973.35;104262;1258;73936;-51
2023/05/04 10:38:38;;;;;;;0.70;0.40;;;;;;;20.52;100.00;99969.09;105217;1254;68529;-51
2023/05/04 10:41:15;;;;;;;1.20;0.40;;;;;;;20.55;100.00;99967.60;106897;1255;74687;-52
2023/05/04 10:43:47;;;;;;;1.80;0.40;;;;;;;20.61;100.00;99965.08;105356;1254;62169;-51
2023/05/04 10:46:21;;;;;;;3.50;0.40;;;;;;;20.64;100.00;99958.08;105701;1254;60916;-51
2023/05/04 10:48:48;;;;;;;1.40;0.50;;;;;;;20.64;100.00;99957.31;106205;1260;75967;-48
2023/05/04 10:51:19;;;;;;;2.20;0.60;;;;;;;20.70;100.00;99959.67;107642;1257;68752;-52
2023/05/04 10:53:46;;;;;;;2.30;1.00;;;;;;;20.79;100.00;99958.73;106012;1256;71591;-51
2023/05/04 10:56:24;;;;;;;3.90;0.50;;;;;;;20.89;100.00;99953.81;106599;1261;60535;-50
2023/05/04 10:58:51;;;;;;;1.20;0.50;;;;;;;20.97;100.00;99955.51;106471;1261;62761;-51
2023/05/04 11:01:18;;;;;;;0.50;0.50;;;;;;;21.05;100.00;99952.65;105313;1260;73046;-51
2023/05/04 11:03:45;;;;;;;2.00;0.40;;;;;;;21.11;100.00;99947.55;108578;1260;67592;-52
2023/05/04 11:06:22;;;;;;;0.70;0.40;;;;;;;21.15;100.00;99944.77;108451;1260;73357;-51
2023/05/04 11:09:00;;;;;;;1.90;0.80;;;;;;;21.20;100.00;99941.65;108673;1254;59952;-52
2023/05/04 11:11:27;;;;;;;0.60;0.50;;;;;;;21.26;100.00;99942.17;108532;1254;61315;-51
2023/05/04 11:13:53;;;;;;;1.80;0.50;;;;;;;21.33;100.00;99942.70;108892;1254;75255;-53